createdAt,value
2017-09-28T00:01:23.407Z,14.70
2017-09-28T00:03:51.679Z,16.37
2017-09-28T00:06:20.035Z,17.30
2017-09-28T00:08:48.286Z,18.80
2017-09-28T00:11:16.624Z,17.43
2017-09-28T00:13:44.911Z,18.60
2017-09-28T00:16:13.175Z,16.50
2017-09-28T00:18:41.944Z,18.53
2017-09-28T00:21:11.074Z,17.33
2017-09-28T00:23:39.330Z,17.83
2017-09-28T00:26:07.595Z,17.27
2017-09-28T00:28:36.610Z,17.40
2017-09-28T00:31:05.126Z,17.77
2017-09-28T00:33:33.383Z,16.73
2017-09-28T00:36:02.372Z,16.70
2017-09-28T00:38:30.624Z,18.50
2017-09-28T00:40:58.897Z,17.37
2017-09-28T00:43:27.138Z,18.40
2017-09-28T00:45:55.531Z,18.43
2017-09-28T00:48:23.792Z,18.63
2017-09-28T00:50:52.090Z,17.10
2017-09-28T00:53:21.014Z,17.83
2017-09-28T00:55:50.087Z,17.40
2017-09-28T00:58:18.335Z,17.83
2017-09-28T01:00:46.598Z,17.27
2017-09-28T01:03:15.647Z,16.60
2017-09-28T01:05:43.964Z,18.90
2017-09-28T01:08:12.315Z,18.23
2017-09-28T01:10:40.588Z,18.80
2017-09-28T01:13:08.842Z,17.10
2017-09-28T01:15:37.871Z,17.07
2017-09-28T01:18:06.194Z,17.13
2017-09-28T01:20:34.431Z,16.80
2017-09-28T01:23:02.778Z,17.53
2017-09-28T01:25:31.038Z,17.67
2017-09-28T01:27:59.390Z,19.17
2017-09-28T01:30:27.642Z,18.23
2017-09-28T01:32:55.910Z,19.33
2017-09-28T01:35:24.926Z,17.43
2017-09-28T01:37:53.219Z,17.00
2017-09-28T01:40:21.481Z,16.80
2017-09-28T01:42:49.742Z,16.80
2017-09-28T01:45:18.778Z,16.30
2017-09-28T01:47:47.051Z,16.67
2017-09-28T01:50:15.349Z,15.80
2017-09-28T01:52:43.618Z,17.37
2017-09-28T01:55:11.887Z,16.17
2017-09-28T01:57:40.186Z,17.73
2017-09-28T02:00:08.464Z,15.70
2017-09-28T02:02:36.729Z,16.43
2017-09-28T02:05:05.035Z,18.50
2017-09-28T02:07:33.293Z,17.83
2017-09-28T02:10:01.929Z,17.80
2017-09-28T02:12:30.196Z,19.13
2017-09-28T02:14:58.447Z,17.73
2017-09-28T02:17:26.738Z,17.40
2017-09-28T02:19:55.013Z,18.10
2017-09-28T02:22:23.274Z,17.40
2017-09-28T02:24:51.535Z,16.60
2017-09-28T02:27:19.863Z,17.73
2017-09-28T02:29:48.155Z,17.90
2017-09-28T02:32:16.434Z,19.23
2017-09-28T02:34:44.695Z,19.77
2017-09-28T02:37:13.107Z,17.80
2017-09-28T02:39:41.369Z,17.43
2017-09-28T02:42:09.623Z,16.60
2017-09-28T02:44:38.657Z,16.30
2017-09-28T02:47:06.907Z,16.57
2017-09-28T02:49:36.016Z,18.07
2017-09-28T02:52:04.333Z,16.70
2017-09-28T02:54:33.637Z,17.97
2017-09-28T02:57:01.888Z,16.43
2017-09-28T02:59:30.151Z,17.20
2017-09-28T03:01:59.171Z,17.20
2017-09-28T03:04:27.443Z,17.70
2017-09-28T03:06:55.745Z,17.77
2017-09-28T03:09:24.023Z,17.77
2017-09-28T03:11:52.270Z,18.93
2017-09-28T03:14:21.306Z,19.30
2017-09-28T03:16:49.583Z,18.60
2017-09-28T03:19:17.871Z,19.20
2017-09-28T03:21:53.517Z,17.90
2017-09-28T03:24:21.793Z,18.43
2017-09-28T03:26:50.048Z,19.20
2017-09-28T03:29:19.086Z,18.93
2017-09-28T03:31:47.329Z,21.10
2017-09-28T03:34:15.642Z,18.13
2017-09-28T03:36:43.927Z,18.87
2017-09-28T03:39:12.210Z,19.40
2017-09-28T03:41:40.462Z,19.40
2017-09-28T03:44:08.726Z,18.30
2017-09-28T03:46:37.739Z,18.93
2017-09-28T03:49:06.012Z,20.23
2017-09-28T03:51:35.029Z,18.90
2017-09-28T03:54:03.329Z,18.80
2017-09-28T03:56:31.599Z,16.83
2017-09-28T03:58:59.908Z,19.93
2017-09-28T04:01:28.183Z,17.50
2017-09-28T04:03:56.453Z,19.23
2017-09-28T04:06:24.718Z,17.90
2017-09-28T04:08:52.963Z,16.77
2017-09-28T04:11:21.261Z,17.10
2017-09-28T04:13:50.303Z,19.30
2017-09-28T04:16:18.577Z,19.20
2017-09-28T04:18:46.824Z,18.33
2017-09-28T04:21:15.858Z,17.20
2017-09-28T04:23:44.415Z,18.37
2017-09-28T04:26:13.532Z,17.70
2017-09-28T04:28:41.783Z,17.50
2017-09-28T04:31:10.822Z,17.30
2017-09-28T04:33:39.111Z,18.67
2017-09-28T04:36:07.385Z,18.20
2017-09-28T04:38:35.626Z,17.60
2017-09-28T04:41:04.670Z,18.30
2017-09-28T04:43:32.927Z,17.57
2017-09-28T04:46:01.192Z,18.93
2017-09-28T04:48:30.207Z,18.43
2017-09-28T04:50:58.481Z,18.43
2017-09-28T04:53:26.735Z,17.47
2017-09-28T04:55:55.114Z,17.30
2017-09-28T04:58:23.468Z,17.60
2017-09-28T05:00:51.722Z,18.93
2017-09-28T05:03:20.001Z,18.90
2017-09-28T05:05:48.244Z,17.17
2017-09-28T05:08:16.530Z,17.83
2017-09-28T05:10:44.783Z,18.90
2017-09-28T05:13:13.061Z,18.50
2017-09-28T05:15:41.316Z,20.10
2017-09-28T05:18:09.607Z,17.97
2017-09-28T05:20:37.880Z,17.43
2017-09-28T05:23:06.172Z,18.40
2017-09-28T05:25:34.579Z,18.40
2017-09-28T05:28:04.504Z,19.20
2017-09-28T05:30:32.891Z,18.80
2017-09-28T05:33:02.704Z,18.70
2017-09-28T05:35:32.493Z,18.33
2017-09-28T05:38:00.799Z,19.90
2017-09-28T05:40:29.086Z,19.30
2017-09-28T05:42:57.351Z,18.30
2017-09-28T05:45:25.612Z,19.57
2017-09-28T05:47:53.885Z,18.97
2017-09-28T05:50:22.139Z,19.00
2017-09-28T05:52:50.462Z,18.60
2017-09-28T05:55:18.723Z,20.70
2017-09-28T05:57:47.569Z,18.40
2017-09-28T06:00:15.878Z,18.50
2017-09-28T06:02:44.902Z,18.37
2017-09-28T06:05:13.182Z,19.37
2017-09-28T06:07:41.462Z,18.73
2017-09-28T06:10:09.774Z,19.03
2017-09-28T06:12:38.025Z,19.57
2017-09-28T06:15:07.219Z,19.80
2017-09-28T06:17:35.470Z,19.07
2017-09-28T06:20:03.726Z,20.30
2017-09-28T06:22:31.966Z,20.23
2017-09-28T06:25:00.230Z,19.77
2017-09-28T06:27:29.249Z,19.20
2017-09-28T06:29:57.514Z,19.43
2017-09-28T06:32:25.773Z,19.70
2017-09-28T06:34:55.543Z,19.33
2017-09-28T06:37:23.795Z,17.80
2017-09-28T06:39:52.067Z,18.17
2017-09-28T06:42:21.105Z,20.37
2017-09-28T06:44:49.434Z,18.00
2017-09-28T06:47:17.675Z,18.43
2017-09-28T06:49:45.942Z,17.40
2017-09-28T06:52:14.214Z,17.83
2017-09-28T06:54:42.466Z,18.70
2017-09-28T06:57:11.511Z,17.50
2017-09-28T06:59:39.790Z,19.00
2017-09-28T07:02:08.063Z,19.80
2017-09-28T07:04:36.330Z,19.40
2017-09-28T07:07:04.579Z,21.13
2017-09-28T07:09:33.727Z,20.77
2017-09-28T07:12:02.600Z,19.93
2017-09-28T07:14:30.891Z,19.80
2017-09-28T07:16:59.161Z,19.70
2017-09-28T07:19:27.644Z,20.00
2017-09-28T07:21:55.958Z,20.70
2017-09-28T07:24:24.265Z,22.37
2017-09-28T07:26:52.522Z,20.90
2017-09-28T07:29:20.799Z,21.87
2017-09-28T07:31:49.071Z,21.30
2017-09-28T07:34:17.326Z,19.50
2017-09-28T07:36:45.591Z,18.70
2017-09-28T07:39:14.877Z,18.33
2017-09-28T07:41:43.920Z,18.60
2017-09-28T07:44:12.175Z,18.97
2017-09-28T07:46:40.982Z,20.70
2017-09-28T07:49:10.009Z,19.37
2017-09-28T07:51:38.274Z,17.50
2017-09-28T07:54:06.575Z,19.83
2017-09-28T07:56:34.968Z,20.03
2017-09-28T07:59:03.223Z,18.53
2017-09-28T08:01:31.643Z,20.00
2017-09-28T08:03:59.927Z,20.23
2017-09-28T08:06:28.194Z,19.93
2017-09-28T08:08:56.475Z,20.43
2017-09-28T08:11:24.764Z,21.30
2017-09-28T08:13:53.026Z,22.73
2017-09-28T08:16:21.320Z,23.23
2017-09-28T08:18:49.569Z,23.87
2017-09-28T08:21:17.861Z,22.50
2017-09-28T08:23:46.140Z,22.33
2017-09-28T08:26:14.443Z,22.97
2017-09-28T08:28:42.821Z,21.73
2017-09-28T08:31:11.922Z,23.97
2017-09-28T08:33:40.295Z,23.53
2017-09-28T08:36:08.549Z,23.90
2017-09-28T08:38:36.821Z,22.13
2017-09-28T08:41:05.851Z,23.87
2017-09-28T08:43:34.142Z,24.03
2017-09-28T08:46:02.422Z,27.70
2017-09-28T08:48:30.706Z,24.53
2017-09-28T08:50:58.946Z,25.47
2017-09-28T08:53:27.975Z,27.33
2017-09-28T08:55:56.230Z,27.17
2017-09-28T08:58:25.256Z,25.03
2017-09-28T09:00:53.550Z,24.27
2017-09-28T09:03:21.823Z,24.83
2017-09-28T09:05:50.076Z,26.80
2017-09-28T09:08:19.127Z,25.30
2017-09-28T09:10:47.392Z,24.57
2017-09-28T09:13:15.751Z,26.13
2017-09-28T09:15:44.768Z,25.20
2017-09-28T09:18:13.048Z,26.07
2017-09-28T09:20:41.337Z,26.40
2017-09-28T09:23:09.611Z,28.40
2017-09-28T09:25:37.911Z,26.77
2017-09-28T09:28:06.176Z,27.20
2017-09-28T09:30:34.427Z,27.77
2017-09-28T09:33:02.718Z,26.00
2017-09-28T09:35:31.022Z,27.27
2017-09-28T09:37:59.295Z,26.50
2017-09-28T09:40:27.547Z,26.50
2017-09-28T09:42:56.571Z,26.33
2017-09-28T09:45:24.839Z,27.30
2017-09-28T09:47:53.094Z,27.20
2017-09-28T09:50:22.159Z,25.33
2017-09-28T09:52:50.411Z,28.43
2017-09-28T09:55:18.669Z,28.60
2017-09-28T09:57:46.999Z,27.87
2017-09-28T10:00:15.268Z,28.40
2017-09-28T10:02:43.513Z,27.00
2017-09-28T10:05:12.650Z,28.60
2017-09-28T10:07:50.494Z,27.27
2017-09-28T10:10:25.179Z,28.33
2017-09-28T10:12:55.242Z,28.33
2017-09-28T10:15:40.366Z,29.27
2017-09-28T10:18:08.919Z,28.47
2017-09-28T10:20:37.189Z,30.57
2017-09-28T10:23:05.540Z,30.07
2017-09-28T10:25:33.798Z,28.67
2017-09-28T10:28:02.048Z,29.23
2017-09-28T10:30:30.503Z,29.43
2017-09-28T10:32:59.632Z,28.87
2017-09-28T10:35:30.091Z,29.90
2017-09-28T10:37:58.347Z,29.27
2017-09-28T10:40:26.787Z,31.60
2017-09-28T10:42:55.066Z,31.83
2017-09-28T10:45:23.332Z,32.50
2017-09-28T10:47:51.599Z,31.90
2017-09-28T10:50:19.868Z,31.40
2017-09-28T10:52:48.910Z,30.57
2017-09-28T10:55:17.264Z,31.97
2017-09-28T10:57:45.585Z,31.20
2017-09-28T11:00:13.875Z,30.40
2017-09-28T11:02:42.138Z,32.30
2017-09-28T11:05:10.478Z,34.33
2017-09-28T11:07:38.939Z,32.57
2017-09-28T11:10:07.194Z,30.20
2017-09-28T11:12:35.471Z,32.50
2017-09-28T11:15:03.728Z,31.50
2017-09-28T11:17:32.028Z,32.27
2017-09-28T11:20:00.324Z,30.27
2017-09-28T11:22:29.766Z,33.73
2017-09-28T11:24:58.095Z,31.67
2017-09-28T11:27:26.454Z,30.97
2017-09-28T11:29:54.770Z,32.00
2017-09-28T11:32:23.047Z,31.10
2017-09-28T11:34:51.347Z,30.90
2017-09-28T11:37:19.616Z,30.40
2017-09-28T11:39:47.858Z,29.93
2017-09-28T11:42:16.995Z,32.53
2017-09-28T11:44:45.250Z,30.60
2017-09-28T11:47:13.515Z,30.83
2017-09-28T11:49:42.535Z,29.97
2017-09-28T11:52:10.826Z,31.97
2017-09-28T11:54:39.134Z,31.73
2017-09-28T11:57:07.420Z,30.10
2017-09-28T11:59:35.667Z,31.40
2017-09-28T12:02:03.919Z,29.93
2017-09-28T12:04:32.951Z,29.07
2017-09-28T12:07:01.262Z,29.00
2017-09-28T12:09:29.633Z,27.07
2017-09-28T12:11:57.911Z,29.03
2017-09-28T12:14:26.173Z,30.03
2017-09-28T12:16:54.439Z,26.27
2017-09-28T12:19:23.472Z,27.10
2017-09-28T12:21:51.762Z,27.00
2017-09-28T12:24:20.026Z,29.37
2017-09-28T12:26:48.284Z,24.30
2017-09-28T12:29:17.347Z,24.90
2017-09-28T12:31:45.590Z,24.50
2017-09-28T12:34:13.880Z,24.27
2017-09-28T12:36:42.140Z,21.90
2017-09-28T12:39:10.438Z,23.50
2017-09-28T12:41:38.763Z,23.10
2017-09-28T12:44:07.048Z,23.80
2017-09-28T12:46:35.416Z,23.17
2017-09-28T12:49:03.683Z,22.10
2017-09-28T12:51:31.931Z,23.20
2017-09-28T12:54:00.235Z,21.00
2017-09-28T12:56:28.518Z,19.83
2017-09-28T12:58:56.788Z,21.40
2017-09-28T13:01:25.046Z,20.37
2017-09-28T13:03:54.100Z,20.57
2017-09-28T13:06:22.359Z,20.00
2017-09-28T13:08:50.607Z,20.73
2017-09-28T13:11:18.913Z,20.30
2017-09-28T13:13:47.180Z,19.83
2017-09-28T13:16:15.483Z,21.67
2017-09-28T13:18:43.742Z,20.93
2017-09-28T13:21:12.045Z,18.50
2017-09-28T13:23:40.346Z,19.47
2017-09-28T13:26:08.603Z,18.33
2017-09-28T13:28:36.872Z,18.87
2017-09-28T13:31:05.156Z,18.37
2017-09-28T13:33:33.405Z,19.70
2017-09-28T13:36:02.539Z,18.50
2017-09-28T13:38:30.835Z,17.83
2017-09-28T13:40:59.114Z,18.23
2017-09-28T13:43:27.383Z,16.10
2017-09-28T13:45:55.672Z,16.20
2017-09-28T13:48:29.488Z,18.30
2017-09-28T13:50:57.781Z,19.40
2017-09-28T13:53:26.664Z,18.27
2017-09-28T13:55:54.912Z,19.53
2017-09-28T13:58:23.905Z,21.30
2017-09-28T14:00:53.032Z,19.13
2017-09-28T14:03:21.315Z,19.87
2017-09-28T14:05:49.609Z,17.63
2017-09-28T14:08:17.858Z,17.53
2017-09-28T14:10:46.169Z,16.73
2017-09-28T14:13:14.418Z,16.87
2017-09-28T14:15:42.706Z,18.07
2017-09-28T14:18:11.023Z,18.30
2017-09-28T14:20:39.296Z,17.63
2017-09-28T14:23:07.547Z,18.20
2017-09-28T14:25:35.811Z,17.00
2017-09-28T14:28:04.946Z,17.93
2017-09-28T14:30:33.237Z,17.57
2017-09-28T14:33:01.498Z,20.00
2017-09-28T14:35:29.794Z,19.47
2017-09-28T14:37:58.074Z,17.87
2017-09-28T14:40:26.326Z,19.27
2017-09-28T14:42:54.672Z,17.97
2017-09-28T14:45:22.918Z,19.43
2017-09-28T14:47:51.177Z,19.90
2017-09-28T14:50:19.473Z,17.90
2017-09-28T14:52:47.743Z,19.20
2017-09-28T14:55:16.003Z,17.53
2017-09-28T14:57:45.053Z,18.77
2017-09-28T15:00:13.302Z,18.23
2017-09-28T15:02:41.575Z,17.40
2017-09-28T15:05:09.826Z,16.90
2017-09-28T15:07:38.890Z,19.43
2017-09-28T15:10:07.169Z,18.50
2017-09-28T15:12:35.447Z,17.33
2017-09-28T15:15:04.104Z,16.87
2017-09-28T15:17:32.513Z,16.30
2017-09-28T15:20:00.818Z,16.37
2017-09-28T15:22:29.086Z,15.87
2017-09-28T15:24:57.336Z,16.57
2017-09-28T15:27:25.667Z,18.40
2017-09-28T15:29:53.912Z,18.77
2017-09-28T15:32:22.205Z,15.67
2017-09-28T15:34:50.718Z,17.17
2017-09-28T15:37:18.974Z,18.50
2017-09-28T15:39:47.233Z,18.13
2017-09-28T15:42:15.511Z,17.50
2017-09-28T15:44:43.796Z,18.10
2017-09-28T15:47:12.049Z,17.23
2017-09-28T15:49:40.322Z,17.67
2017-09-28T15:52:08.668Z,18.50
2017-09-28T15:54:37.054Z,16.40
2017-09-28T15:57:05.312Z,18.10
2017-09-28T15:59:33.580Z,16.80
2017-09-28T16:02:01.925Z,16.73
2017-09-28T16:04:30.234Z,18.17
2017-09-28T16:06:59.282Z,16.40
2017-09-28T16:09:27.549Z,16.73
2017-09-28T16:11:55.813Z,19.80
2017-09-28T16:14:24.080Z,18.67
2017-09-28T16:16:53.105Z,17.60
2017-09-28T16:19:21.388Z,17.97
2017-09-28T16:21:49.637Z,18.27
2017-09-28T16:24:18.775Z,20.03
2017-09-28T16:26:47.064Z,17.50
2017-09-28T16:29:15.339Z,19.43
2017-09-28T16:31:43.590Z,19.87
2017-09-28T16:34:12.635Z,17.90
2017-09-28T16:36:40.891Z,20.27
2017-09-28T16:39:09.180Z,20.63
2017-09-28T16:41:37.428Z,20.80
2017-09-28T16:44:06.446Z,19.17
2017-09-28T16:46:34.724Z,18.50
2017-09-28T16:49:02.982Z,19.20
2017-09-28T16:51:32.024Z,18.60
2017-09-28T16:54:00.291Z,18.80
2017-09-28T16:56:28.587Z,18.50
2017-09-28T16:58:57.594Z,17.37
2017-09-28T17:01:25.861Z,18.17
2017-09-28T17:03:54.151Z,18.50
2017-09-28T17:06:22.425Z,19.10
2017-09-28T17:08:50.689Z,18.47
2017-09-28T17:11:18.955Z,18.03
2017-09-28T17:13:47.303Z,19.50
2017-09-28T17:16:15.650Z,20.10
2017-09-28T17:18:44.259Z,20.10
2017-09-28T17:21:12.524Z,19.60
2017-09-28T17:23:40.800Z,20.00
2017-09-28T17:26:09.067Z,20.93
2017-09-28T17:28:37.366Z,19.70
2017-09-28T17:31:05.641Z,18.90
2017-09-28T17:33:33.895Z,19.30
2017-09-28T17:36:02.171Z,20.63
2017-09-28T17:38:31.180Z,18.13
2017-09-28T17:41:00.269Z,21.00
2017-09-28T17:43:29.279Z,19.77
2017-09-28T17:45:57.580Z,19.83
2017-09-28T17:48:25.871Z,20.30
2017-09-28T17:50:54.160Z,19.87
2017-09-28T17:53:22.424Z,19.60
2017-09-28T17:55:50.676Z,20.27
2017-09-28T17:58:18.993Z,19.10
2017-09-28T18:00:47.244Z,19.20
2017-09-28T18:03:15.567Z,18.97
2017-09-28T18:05:43.830Z,21.07
2017-09-28T18:08:12.115Z,17.47
2017-09-28T18:10:40.398Z,18.97
2017-09-28T18:13:08.655Z,18.30
2017-09-28T18:15:37.769Z,17.40
2017-09-28T18:18:06.043Z,18.00
2017-09-28T18:20:34.302Z,18.00
2017-09-28T18:23:03.327Z,19.43
2017-09-28T18:25:31.585Z,17.37
2017-09-28T18:28:00.717Z,19.27
2017-09-28T18:30:28.976Z,17.70
2017-09-28T18:32:57.243Z,18.20
2017-09-28T18:35:26.257Z,17.10
2017-09-28T18:37:54.534Z,18.13
2017-09-28T18:40:22.793Z,17.43
2017-09-28T18:42:51.072Z,19.03
2017-09-28T18:45:20.141Z,18.97
2017-09-28T18:47:48.553Z,18.60
2017-09-28T18:50:16.795Z,16.40
2017-09-28T18:52:45.066Z,17.43
2017-09-28T18:55:13.359Z,17.80
2017-09-28T18:57:41.628Z,17.70
2017-09-28T19:00:09.928Z,17.33
2017-09-28T19:02:38.324Z,17.27
2017-09-28T19:05:06.604Z,17.80
2017-09-28T19:07:34.863Z,17.40
2017-09-28T19:10:03.150Z,17.07
2017-09-28T19:12:31.419Z,17.47
2017-09-28T19:14:59.717Z,21.57
2017-09-28T19:17:27.970Z,18.60
2017-09-28T19:19:56.392Z,18.90
2017-09-28T19:22:24.627Z,18.50
2017-09-28T19:24:52.906Z,18.37
2017-09-28T19:27:21.176Z,19.50
2017-09-28T19:29:50.240Z,17.97
2017-09-28T19:32:18.486Z,17.13
2017-09-28T19:34:46.751Z,18.67
2017-09-28T19:37:15.015Z,17.87
2017-09-28T19:39:44.053Z,18.77
2017-09-28T19:42:12.344Z,17.70
2017-09-28T19:44:40.619Z,18.57
2017-09-28T19:47:09.243Z,19.27
2017-09-28T19:49:37.498Z,18.80
2017-09-28T19:52:07.448Z,17.60
2017-09-28T19:54:36.711Z,18.33
2017-09-28T19:57:04.964Z,19.07
2017-09-28T19:59:33.232Z,19.30
2017-09-28T20:02:02.259Z,19.00
2017-09-28T20:04:30.567Z,19.17
2017-09-28T20:06:58.850Z,17.93
2017-09-28T20:09:27.223Z,17.70
2017-09-28T20:11:55.480Z,18.87
2017-09-28T20:14:23.739Z,18.57
2017-09-28T20:16:52.787Z,17.40
2017-09-28T20:19:21.072Z,17.33
2017-09-28T20:21:49.319Z,17.20
2017-09-28T20:24:17.627Z,17.13
2017-09-28T20:26:45.897Z,16.47
2017-09-28T20:29:14.151Z,17.63
2017-09-28T20:31:43.222Z,19.00
2017-09-28T20:34:11.562Z,17.33
2017-09-28T20:36:39.841Z,18.90
2017-09-28T20:39:08.096Z,17.93
2017-09-28T20:41:36.378Z,18.47
2017-09-28T20:44:05.417Z,18.70
2017-09-28T20:46:33.686Z,18.20
2017-09-28T20:49:01.939Z,16.43
2017-09-28T20:51:30.967Z,17.40
2017-09-28T20:53:59.853Z,16.83
2017-09-28T20:56:28.122Z,17.20
2017-09-28T20:58:56.370Z,15.93
2017-09-28T21:01:24.639Z,18.20
2017-09-28T21:03:52.894Z,17.30
2017-09-28T21:06:21.174Z,18.37
2017-09-28T21:08:49.452Z,16.40
2017-09-28T21:11:17.721Z,18.67
2017-09-28T21:13:45.983Z,18.17
2017-09-28T21:16:15.119Z,17.70
2017-09-28T21:18:43.401Z,17.80
2017-09-28T21:21:11.665Z,18.53
2017-09-28T21:23:39.950Z,18.00
2017-09-28T21:26:08.210Z,17.30
2017-09-28T21:28:36.475Z,17.60
2017-09-28T21:31:04.837Z,18.20
2017-09-28T21:33:33.097Z,19.03
2017-09-28T21:36:01.371Z,18.90
2017-09-28T21:38:29.649Z,19.40
2017-09-28T21:40:57.898Z,20.30
2017-09-28T21:43:26.218Z,18.97
2017-09-28T21:45:54.474Z,19.17
2017-09-28T21:48:22.757Z,17.87
2017-09-28T21:50:51.052Z,17.70
2017-09-28T21:53:19.307Z,18.13
2017-09-28T21:55:47.698Z,17.37
2017-09-28T21:58:16.016Z,16.90
2017-09-28T22:00:44.263Z,17.20
2017-09-28T22:03:12.570Z,16.50
2017-09-28T22:05:40.856Z,18.83
2017-09-28T22:08:09.156Z,15.97
2017-09-28T22:10:37.415Z,16.97
2017-09-28T22:13:05.717Z,17.60
2017-09-28T22:15:33.996Z,18.00
2017-09-28T22:18:03.078Z,16.53
2017-09-28T22:20:31.343Z,17.23
2017-09-28T22:22:59.619Z,17.73
2017-09-28T22:25:27.872Z,17.40
2017-09-28T22:27:56.921Z,18.00
2017-09-28T22:30:25.179Z,18.90
2017-09-28T22:32:53.511Z,16.60
2017-09-28T22:35:21.749Z,17.83
2017-09-28T22:37:50.035Z,17.17
2017-09-28T22:40:19.179Z,17.07
2017-09-28T22:42:47.446Z,17.27
2017-09-28T22:45:15.810Z,17.40
2017-09-28T22:47:44.071Z,17.47
2017-09-28T22:50:12.356Z,17.20
2017-09-28T22:52:40.678Z,17.50
2017-09-28T22:55:08.977Z,16.27
2017-09-28T22:57:37.220Z,18.30
2017-09-28T23:00:05.493Z,17.33
2017-09-28T23:02:33.744Z,17.23
2017-09-28T23:05:02.013Z,18.20
2017-09-28T23:07:31.026Z,18.23
2017-09-28T23:09:59.296Z,16.30
2017-09-28T23:12:28.314Z,16.40
2017-09-28T23:14:56.578Z,17.00
2017-09-28T23:17:24.883Z,17.50
2017-09-28T23:19:53.147Z,17.93
2017-09-28T23:22:21.576Z,16.53
2017-09-28T23:24:49.857Z,17.40
2017-09-28T23:27:18.152Z,18.50
2017-09-28T23:29:47.188Z,18.70
2017-09-28T23:32:15.455Z,17.70
2017-09-28T23:34:44.639Z,19.27
2017-09-28T23:37:12.899Z,18.27
2017-09-28T23:39:41.174Z,19.00
2017-09-28T23:42:09.431Z,18.87
2017-09-28T23:44:37.727Z,19.40
2017-09-28T23:47:06.041Z,18.30
2017-09-28T23:49:34.288Z,18.27
2017-09-28T23:52:02.540Z,18.00
2017-09-28T23:54:30.854Z,17.97
2017-09-28T23:56:59.142Z,17.63
2017-09-28T23:59:27.390Z,16.80
